createdAt,value
2023-02-08T00:00:06.458Z,98354.38
2023-02-08T00:02:34.387Z,98355.00
2023-02-08T00:05:01.068Z,98345.00
2023-02-08T00:07:27.829Z,98263.56
2023-02-08T00:09:54.426Z,98337.06
2023-02-08T00:12:21.083Z,98355.59
2023-02-08T00:14:47.689Z,98359.22
2023-02-08T00:17:14.335Z,98308.09
2023-02-08T00:19:41.056Z,98353.19
2023-02-08T00:22:07.762Z,98325.66
2023-02-08T00:24:34.406Z,98349.81
2023-02-08T00:27:00.977Z,98327.66
2023-02-08T00:29:27.592Z,98332.75
2023-02-08T00:31:54.300Z,98332.06
2023-02-08T00:34:20.938Z,98314.19
2023-02-08T00:36:47.617Z,98275.50
2023-02-08T00:39:14.451Z,98350.53
2023-02-08T00:41:41.059Z,98329.78
2023-02-08T00:44:07.716Z,98317.59
2023-02-08T00:46:35.255Z,98320.13
2023-02-08T00:49:01.955Z,98336.06
2023-02-08T00:51:28.608Z,98356.41
2023-02-08T00:53:55.227Z,98346.91
2023-02-08T00:56:22.756Z,98304.47
2023-02-08T00:58:49.341Z,98335.31
2023-02-08T01:01:17.291Z,98317.78
2023-02-08T01:03:44.043Z,98340.84
2023-02-08T01:06:15.222Z,98356.53
2023-02-08T01:08:41.916Z,98287.47
2023-02-08T01:11:13.079Z,98335.72
2023-02-08T01:13:40.577Z,98354.75
2023-02-08T01:16:12.115Z,98354.59
2023-02-08T01:18:40.974Z,98351.81
2023-02-08T01:21:10.395Z,98352.19
2023-02-08T01:23:39.940Z,98314.56
2023-02-08T01:26:08.106Z,98329.31
2023-02-08T01:28:35.147Z,98360.44
2023-02-08T01:31:10.241Z,98368.94
2023-02-08T01:33:37.831Z,98360.25
2023-02-08T01:36:05.003Z,98281.94
2023-02-08T01:38:32.583Z,98357.78
2023-02-08T01:40:59.823Z,98339.06
2023-02-08T01:43:31.700Z,98310.97
2023-02-08T01:45:58.490Z,98339.72
2023-02-08T01:48:27.202Z,98351.78
2023-02-08T01:51:12.811Z,98344.59
2023-02-08T01:53:40.269Z,98324.31
2023-02-08T01:56:15.155Z,98347.53
2023-02-08T01:58:46.573Z,98346.78
2023-02-08T02:01:14.013Z,98303.66
2023-02-08T02:03:42.486Z,98311.63
2023-02-08T02:06:32.926Z,98342.81
2023-02-08T02:09:15.016Z,98339.94
2023-02-08T02:11:43.021Z,98338.19
2023-02-08T02:14:10.646Z,98331.94
2023-02-08T02:16:37.585Z,98253.47
2023-02-08T02:19:11.600Z,98301.84
2023-02-08T02:22:05.706Z,98305.38
2023-02-08T02:24:38.410Z,98337.38
2023-02-08T02:27:17.122Z,98294.78
2023-02-08T02:30:02.567Z,98332.28
2023-02-08T02:32:50.908Z,98324.88
2023-02-08T02:35:47.457Z,98307.72
2023-02-08T02:38:31.505Z,98317.69
2023-02-08T02:41:12.664Z,98329.59
2023-02-08T02:43:42.214Z,98333.97
2023-02-08T02:46:21.716Z,98338.03
2023-02-08T02:49:10.417Z,98344.63
2023-02-08T02:51:49.215Z,98346.59
2023-02-08T02:54:33.008Z,98346.81
2023-02-08T02:57:03.356Z,98308.34
2023-02-08T02:59:33.748Z,98317.13
2023-02-08T03:02:01.821Z,98309.31
2023-02-08T03:04:34.592Z,98347.72
2023-02-08T03:07:26.282Z,98343.97
2023-02-08T03:10:14.134Z,98342.00
2023-02-08T03:12:53.025Z,98344.84
2023-02-08T03:15:19.628Z,98345.94
2023-02-08T03:18:10.894Z,98329.59
2023-02-08T03:20:53.332Z,98320.44
2023-02-08T03:23:27.923Z,98264.34
2023-02-08T03:26:05.542Z,98304.16
2023-02-08T03:28:39.796Z,98337.13
2023-02-08T03:31:18.273Z,98337.56
2023-02-08T03:33:47.926Z,98336.84
2023-02-08T03:36:33.043Z,98338.47
2023-02-08T03:39:05.351Z,98343.03
2023-02-08T03:41:36.398Z,98339.81
2023-02-08T03:44:06.751Z,98332.88
2023-02-08T03:47:11.486Z,98345.72
2023-02-08T03:49:39.453Z,98309.50
2023-02-08T03:52:09.843Z,98335.94
2023-02-08T03:54:43.041Z,98318.06
2023-02-08T03:57:18.456Z,98325.38
2023-02-08T03:59:54.759Z,98228.50
2023-02-08T04:02:24.710Z,98306.78
2023-02-08T04:04:52.517Z,98250.25
2023-02-08T04:07:19.935Z,98286.38
2023-02-08T04:09:46.774Z,98319.78
2023-02-08T04:12:14.025Z,98300.75
2023-02-08T04:14:40.695Z,98281.69
2023-02-08T04:17:07.342Z,98277.38
2023-02-08T04:19:34.015Z,98296.72
2023-02-08T04:22:00.744Z,98290.09
2023-02-08T04:24:27.405Z,98295.53
2023-02-08T04:26:54.032Z,98322.84
2023-02-08T04:29:20.629Z,98292.16
2023-02-08T04:31:47.319Z,98294.56
2023-02-08T04:34:13.990Z,98264.44
2023-02-08T04:36:40.646Z,98317.13
2023-02-08T04:39:07.262Z,98297.44
2023-02-08T04:41:33.903Z,98339.34
2023-02-08T04:44:00.559Z,98310.13
2023-02-08T04:46:27.189Z,98338.84
2023-02-08T04:48:53.854Z,98259.88
2023-02-08T04:51:20.603Z,98278.41
2023-02-08T04:53:47.197Z,98328.28
2023-02-08T04:56:14.545Z,98270.50
2023-02-08T04:58:41.124Z,98336.22
2023-02-08T05:01:08.352Z,98290.44
2023-02-08T05:03:35.726Z,98343.28
2023-02-08T05:06:02.549Z,98295.41
2023-02-08T05:08:29.179Z,98338.84
2023-02-08T05:10:55.809Z,98310.28
2023-02-08T05:13:22.413Z,98352.25
2023-02-08T05:15:49.153Z,98315.81
2023-02-08T05:18:15.736Z,98352.38
2023-02-08T05:20:42.616Z,98347.44
2023-02-08T05:23:09.427Z,98345.25
2023-02-08T05:25:38.090Z,98232.47
2023-02-08T05:28:04.864Z,98295.59
2023-02-08T05:30:31.783Z,98325.06
2023-02-08T05:32:58.445Z,98297.72
2023-02-08T05:35:25.088Z,98330.84
2023-02-08T05:37:51.674Z,98281.63
2023-02-08T05:40:18.444Z,98213.88
2023-02-08T05:42:45.121Z,98324.25
2023-02-08T05:45:11.697Z,98279.16
2023-02-08T05:47:38.349Z,98331.59
2023-02-08T05:50:05.515Z,98312.38
2023-02-08T05:52:32.161Z,98339.06
2023-02-08T05:54:58.812Z,98329.28
2023-02-08T05:57:25.641Z,98292.72
2023-02-08T05:59:52.252Z,98308.78
2023-02-08T06:02:18.848Z,98345.38
2023-02-08T06:04:46.149Z,98279.31
2023-02-08T06:07:12.796Z,98335.44
2023-02-08T06:09:39.383Z,98362.81
2023-02-08T06:12:07.164Z,98360.69
2023-02-08T06:14:33.811Z,98343.16
2023-02-08T06:17:00.406Z,98360.50
2023-02-08T06:19:27.055Z,98318.66
2023-02-08T06:21:53.656Z,98364.81
2023-02-08T06:24:20.265Z,98335.19
2023-02-08T06:26:46.895Z,98308.66
2023-02-08T06:29:13.510Z,98355.88
2023-02-08T06:31:40.217Z,98357.34
2023-02-08T06:34:07.230Z,98334.59
2023-02-08T06:36:34.011Z,98359.53
2023-02-08T06:39:00.615Z,98335.25
2023-02-08T06:41:27.264Z,98345.41
2023-02-08T06:43:53.850Z,98343.44
2023-02-08T06:46:20.521Z,98344.22
2023-02-08T06:48:47.081Z,98318.88
2023-02-08T06:51:13.683Z,98378.75
2023-02-08T06:53:40.250Z,98342.34
2023-02-08T06:56:07.116Z,98355.59
2023-02-08T06:58:33.724Z,98370.09
2023-02-08T07:01:00.380Z,98370.22
2023-02-08T07:03:27.022Z,98378.13
2023-02-08T07:06:04.421Z,98385.78
2023-02-08T07:08:32.880Z,98389.25
2023-02-08T07:10:59.453Z,98371.44
2023-02-08T07:13:26.024Z,98357.50
2023-02-08T07:15:52.578Z,98361.50
2023-02-08T07:18:19.225Z,98350.72
2023-02-08T07:20:45.909Z,98341.34
2023-02-08T07:23:12.550Z,98385.16
2023-02-08T07:25:39.143Z,98377.50
2023-02-08T07:28:05.843Z,98351.88
2023-02-08T07:30:32.561Z,98372.72
2023-02-08T07:32:59.283Z,98385.34
2023-02-08T07:35:26.002Z,98355.09
2023-02-08T07:37:52.627Z,98391.78
2023-02-08T07:40:19.273Z,98390.63
2023-02-08T07:42:45.901Z,98353.66
2023-02-08T07:45:24.432Z,98382.09
2023-02-08T07:47:51.023Z,98395.63
2023-02-08T07:50:17.800Z,98325.72
2023-02-08T07:52:46.209Z,98385.66
2023-02-08T07:55:17.116Z,98381.25
2023-02-08T07:57:45.089Z,98383.59
2023-02-08T08:00:12.765Z,98386.75
2023-02-08T08:02:39.655Z,98388.00
2023-02-08T08:05:07.112Z,98394.22
2023-02-08T08:07:34.053Z,98362.31
2023-02-08T08:10:00.642Z,98346.88
2023-02-08T08:12:27.333Z,98358.28
2023-02-08T08:14:53.949Z,98338.38
2023-02-08T08:17:20.543Z,98355.84
2023-02-08T08:19:47.223Z,98326.47
2023-02-08T08:22:13.855Z,98358.75
2023-02-08T08:24:40.422Z,98356.00
2023-02-08T08:27:07.245Z,98332.63
2023-02-08T08:29:37.899Z,98335.56
2023-02-08T08:32:05.098Z,98364.22
2023-02-08T08:34:31.951Z,98367.97
2023-02-08T08:37:02.958Z,98364.03
2023-02-08T08:39:29.695Z,98329.06
2023-02-08T08:42:00.972Z,98361.56
2023-02-08T08:44:27.592Z,98352.44
2023-02-08T08:46:58.034Z,98353.09
2023-02-08T08:49:25.950Z,98353.44
2023-02-08T08:51:52.685Z,98341.56
2023-02-08T08:54:19.856Z,98348.16
2023-02-08T08:56:46.483Z,98349.78
2023-02-08T08:59:13.354Z,98340.59
2023-02-08T09:01:42.225Z,98318.44
2023-02-08T09:04:11.863Z,98341.53
2023-02-08T09:06:38.916Z,98313.56
2023-02-08T09:09:06.439Z,98344.47
2023-02-08T09:11:33.411Z,98345.00
2023-02-08T09:14:04.541Z,98321.44
2023-02-08T09:16:32.261Z,98345.59
2023-02-08T09:19:06.908Z,98361.22
2023-02-08T09:21:34.298Z,98361.16
2023-02-08T09:24:01.940Z,98365.38
2023-02-08T09:26:29.093Z,98349.91
2023-02-08T09:28:56.055Z,98345.13
2023-02-08T09:31:25.928Z,98370.59
2023-02-08T09:33:54.661Z,98365.00
2023-02-08T09:36:22.870Z,98342.41
2023-02-08T09:38:51.676Z,98338.94
2023-02-08T09:41:35.797Z,98343.31
2023-02-08T09:44:02.331Z,98370.28
2023-02-08T09:46:32.488Z,98378.19
2023-02-08T09:49:04.249Z,98370.78
2023-02-08T09:51:37.433Z,98374.88
2023-02-08T09:54:26.398Z,98373.25
2023-02-08T09:56:54.092Z,98375.66
2023-02-08T09:59:26.996Z,98355.31
2023-02-08T10:02:00.503Z,98367.50
2023-02-08T10:04:45.751Z,98381.56
2023-02-08T10:07:12.589Z,98362.81
2023-02-08T10:09:39.304Z,98368.97
2023-02-08T10:12:39.022Z,98371.50
2023-02-08T10:15:23.236Z,98372.53
2023-02-08T10:18:29.181Z,98360.34
2023-02-08T10:21:17.377Z,98365.59
2023-02-08T10:23:59.070Z,98354.69
2023-02-08T10:26:35.427Z,98353.41
2023-02-08T10:30:03.882Z,98357.19
2023-02-08T10:32:36.359Z,98357.34
2023-02-08T10:35:13.467Z,98356.19
2023-02-08T10:37:44.626Z,98350.84
2023-02-08T10:40:14.988Z,98351.72
2023-02-08T10:42:47.534Z,98317.22
2023-02-08T10:45:42.009Z,98333.63
2023-02-08T10:48:15.908Z,98303.34
2023-02-08T10:50:47.375Z,98338.22
2023-02-08T10:53:20.051Z,98323.34
2023-02-08T10:55:48.131Z,98316.34
2023-02-08T10:58:18.256Z,98288.28
2023-02-08T11:00:45.791Z,98334.59
2023-02-08T11:03:23.503Z,98284.16
2023-02-08T11:05:51.036Z,98322.84
2023-02-08T11:08:23.131Z,98301.47
2023-02-08T11:11:10.321Z,98294.28
2023-02-08T11:13:39.992Z,98287.53
2023-02-08T11:16:10.852Z,98315.91
2023-02-08T11:18:53.989Z,98319.75
2023-02-08T11:21:24.889Z,98305.56
2023-02-08T11:23:53.877Z,98262.88
2023-02-08T11:26:32.651Z,98313.53
2023-02-08T11:29:11.846Z,98319.34
2023-02-08T11:31:40.630Z,98285.81
2023-02-08T11:34:10.409Z,98314.38
2023-02-08T11:36:46.756Z,98301.06
2023-02-08T11:39:22.980Z,98276.09
2023-02-08T11:41:52.721Z,98260.13
2023-02-08T11:44:30.227Z,98251.13
2023-02-08T11:47:02.850Z,98273.91
2023-02-08T11:49:38.959Z,98256.94
2023-02-08T11:52:18.751Z,98273.25
2023-02-08T11:54:45.342Z,98176.75
2023-02-08T11:57:20.701Z,98298.25
2023-02-08T11:59:49.448Z,98290.06
2023-02-08T12:02:29.827Z,98297.03
2023-02-08T12:04:58.607Z,98241.59
2023-02-08T12:07:45.652Z,98295.03
2023-02-08T12:10:49.886Z,98271.34
2023-02-08T12:13:42.167Z,98270.91
2023-02-08T12:16:18.050Z,98267.91
2023-02-08T12:18:56.823Z,98251.16
2023-02-08T12:21:29.605Z,98254.97
2023-02-08T12:24:03.225Z,98214.09
2023-02-08T12:26:58.106Z,98256.00
2023-02-08T12:29:48.098Z,98245.81
2023-02-08T12:32:51.422Z,98203.34
2023-02-08T12:35:43.305Z,98236.78
2023-02-08T12:39:30.866Z,98230.06
2023-02-08T12:42:00.415Z,98227.25
2023-02-08T12:44:39.156Z,98222.84
2023-02-08T12:47:35.640Z,98225.59
2023-02-08T12:50:31.469Z,98206.97
2023-02-08T12:53:05.941Z,98188.47
2023-02-08T12:55:41.979Z,98207.47
2023-02-08T12:58:29.897Z,98225.56
2023-02-08T13:01:19.175Z,98212.06
2023-02-08T13:04:00.647Z,98188.63
2023-02-08T13:06:34.462Z,98182.28
2023-02-08T13:09:08.096Z,98185.78
2023-02-08T13:11:53.349Z,98210.00
2023-02-08T13:14:34.474Z,98216.44
2023-02-08T13:17:10.652Z,98209.88
2023-02-08T13:19:59.762Z,98195.19
2023-02-08T13:22:31.636Z,98215.56
2023-02-08T13:25:06.857Z,98206.91
2023-02-08T13:27:34.744Z,98187.03
2023-02-08T13:30:01.996Z,98186.00
2023-02-08T13:32:34.841Z,98177.19
2023-02-08T13:35:11.334Z,98202.06
2023-02-08T13:37:38.666Z,98152.50
2023-02-08T13:40:28.014Z,98183.59
2023-02-08T13:43:01.178Z,98202.09
2023-02-08T13:45:30.516Z,98205.13
2023-02-08T13:48:08.255Z,98173.91
2023-02-08T13:50:34.834Z,98202.44
2023-02-08T13:53:02.659Z,98208.22
2023-02-08T13:55:30.582Z,98212.19
2023-02-08T13:58:05.413Z,98191.56
2023-02-08T14:00:35.877Z,98203.88
2023-02-08T14:03:15.796Z,98156.09
2023-02-08T14:05:58.025Z,98175.63
2023-02-08T14:08:36.146Z,98166.59
2023-02-08T14:11:26.951Z,98195.94
2023-02-08T14:14:02.787Z,98194.13
2023-02-08T14:16:41.538Z,98202.06
2023-02-08T14:19:18.158Z,98195.81
2023-02-08T14:21:48.414Z,98173.59
2023-02-08T14:24:25.962Z,98161.66
2023-02-08T14:27:10.802Z,98164.25
2023-02-08T14:29:38.095Z,98144.78
2023-02-08T14:32:05.241Z,98147.06
2023-02-08T14:34:37.734Z,98142.81
2023-02-08T14:37:25.224Z,98117.31
2023-02-08T14:40:23.590Z,98165.00
2023-02-08T14:42:54.414Z,98155.59
2023-02-08T14:45:34.746Z,98151.22
2023-02-08T14:48:16.616Z,98156.31
2023-02-08T14:50:53.743Z,98156.50
2023-02-08T14:53:30.957Z,98163.16
2023-02-08T14:56:13.543Z,98151.72
2023-02-08T14:58:43.512Z,98130.38
2023-02-08T15:01:44.067Z,98128.19
2023-02-08T15:04:11.651Z,98138.91
2023-02-08T15:06:38.308Z,98148.59
2023-02-08T15:09:12.448Z,98129.78
2023-02-08T15:11:40.593Z,98146.34
2023-02-08T15:14:07.480Z,98142.22
2023-02-08T15:16:43.227Z,98095.44
2023-02-08T15:19:21.400Z,98125.13
2023-02-08T15:21:48.220Z,98121.13
2023-02-08T15:24:22.473Z,98082.53
2023-02-08T15:26:54.821Z,98097.84
2023-02-08T15:29:42.859Z,98127.47
2023-02-08T15:32:18.213Z,98130.56
2023-02-08T15:34:50.328Z,98079.84
2023-02-08T15:37:18.846Z,98147.31
2023-02-08T15:39:53.889Z,98123.13
2023-02-08T15:42:28.848Z,98120.91
2023-02-08T15:44:56.286Z,98115.78
2023-02-08T15:47:28.470Z,98091.69
2023-02-08T15:49:56.209Z,98100.09
2023-02-08T15:52:25.668Z,98100.09
2023-02-08T15:54:52.456Z,98115.84
2023-02-08T15:57:28.035Z,98115.25
2023-02-08T15:59:55.626Z,98068.84
2023-02-08T16:02:24.854Z,98104.47
2023-02-08T16:04:51.626Z,98092.31
2023-02-08T16:07:28.904Z,98103.47
2023-02-08T16:09:56.307Z,98091.50
2023-02-08T16:12:25.245Z,98115.03
2023-02-08T16:14:53.075Z,98098.88
2023-02-08T16:17:28.840Z,98121.00
2023-02-08T16:19:55.473Z,98111.81
2023-02-08T16:22:25.869Z,98121.75
2023-02-08T16:24:52.581Z,98102.44
2023-02-08T16:27:31.124Z,98086.09
2023-02-08T16:29:59.166Z,98101.22
2023-02-08T16:32:32.456Z,98095.03
2023-02-08T16:35:01.368Z,98110.22
2023-02-08T16:37:34.985Z,98118.13
2023-02-08T16:40:43.795Z,98100.63
2023-02-08T16:43:24.545Z,98113.34
2023-02-08T16:46:09.205Z,98103.00
2023-02-08T16:48:41.290Z,98097.94
2023-02-08T16:51:14.634Z,98108.09
2023-02-08T16:53:42.793Z,98066.16
2023-02-08T16:56:11.307Z,98083.28
2023-02-08T16:58:38.257Z,98108.00
2023-02-08T17:01:05.303Z,98096.84
2023-02-08T17:03:32.782Z,98092.41
2023-02-08T17:06:01.065Z,98123.97
2023-02-08T17:08:28.137Z,98102.28
2023-02-08T17:10:58.944Z,98113.81
2023-02-08T17:13:28.553Z,98106.78
2023-02-08T17:15:55.451Z,98098.81
2023-02-08T17:18:22.399Z,98086.97
2023-02-08T17:20:48.996Z,98116.59
2023-02-08T17:23:15.918Z,98115.41
2023-02-08T17:25:43.639Z,98135.28
2023-02-08T17:28:20.984Z,98116.19
2023-02-08T17:30:49.727Z,98119.00
2023-02-08T17:33:19.788Z,98121.56
2023-02-08T17:35:48.529Z,98129.31
2023-02-08T17:38:15.560Z,98070.63
2023-02-08T17:40:43.504Z,98087.94
2023-02-08T17:43:11.210Z,98119.50
2023-02-08T17:45:39.427Z,98097.94
2023-02-08T17:48:06.577Z,98122.47
2023-02-08T17:50:33.384Z,98099.72
2023-02-08T17:53:00.016Z,98069.94
2023-02-08T17:55:26.618Z,98086.75
2023-02-08T17:57:53.729Z,98102.84
2023-02-08T18:00:22.599Z,98128.03
2023-02-08T18:02:51.791Z,98131.59
2023-02-08T18:05:23.315Z,98122.78
2023-02-08T18:07:50.747Z,98082.06
2023-02-08T18:10:17.437Z,98093.94
2023-02-08T18:12:44.381Z,98077.19
2023-02-08T18:15:14.745Z,98060.13
2023-02-08T18:17:41.989Z,98114.66
2023-02-08T18:20:10.185Z,98108.41
2023-02-08T18:22:38.076Z,98073.41
2023-02-08T18:25:05.581Z,98070.16
2023-02-08T18:27:32.478Z,98117.44
2023-02-08T18:29:59.735Z,98080.72
2023-02-08T18:32:28.032Z,98044.91
2023-02-08T18:34:55.400Z,98084.47
2023-02-08T18:37:23.178Z,98092.81
2023-02-08T18:39:51.328Z,98121.06
2023-02-08T18:42:18.165Z,98114.00
2023-02-08T18:44:44.754Z,98097.72
2023-02-08T18:47:11.440Z,98085.38
2023-02-08T18:49:40.757Z,98083.81
2023-02-08T18:52:13.699Z,98060.56
2023-02-08T18:54:40.370Z,98094.97
2023-02-08T18:57:10.667Z,98101.72
2023-02-08T18:59:38.437Z,98055.75
2023-02-08T19:02:07.079Z,98101.81
2023-02-08T19:04:38.640Z,98092.66
2023-02-08T19:07:06.013Z,98075.38
2023-02-08T19:09:37.705Z,98086.81
2023-02-08T19:12:04.974Z,98066.94
2023-02-08T19:14:31.812Z,98088.13
2023-02-08T19:16:58.464Z,98064.50
2023-02-08T19:19:25.239Z,98074.19
2023-02-08T19:21:52.393Z,98087.66
2023-02-08T19:24:21.951Z,98051.66
2023-02-08T19:26:48.646Z,98086.31
2023-02-08T19:29:17.656Z,98056.47
2023-02-08T19:31:45.396Z,98086.59
2023-02-08T19:34:13.026Z,98052.22
2023-02-08T19:36:46.482Z,98079.53
2023-02-08T19:39:16.521Z,98082.50
2023-02-08T19:41:45.482Z,98080.47
2023-02-08T19:44:15.034Z,98042.06
2023-02-08T19:46:45.390Z,98046.97
2023-02-08T19:49:13.296Z,98084.31
2023-02-08T19:51:40.303Z,98048.31
2023-02-08T19:54:10.142Z,98074.28
2023-02-08T19:56:37.125Z,98024.88
2023-02-08T19:59:06.085Z,98073.31
2023-02-08T20:01:35.363Z,98067.38
2023-02-08T20:04:03.206Z,98053.66
2023-02-08T20:06:33.637Z,98068.56
2023-02-08T20:09:00.590Z,98037.97
2023-02-08T20:11:30.689Z,98040.97
2023-02-08T20:13:58.886Z,98059.09
2023-02-08T20:16:29.364Z,98056.78
2023-02-08T20:18:58.368Z,98066.91
2023-02-08T20:21:25.098Z,98023.59
2023-02-08T20:23:52.350Z,98057.38
2023-02-08T20:26:27.223Z,97987.38
2023-02-08T20:28:59.415Z,98028.19
2023-02-08T20:31:31.905Z,98056.44
2023-02-08T20:34:02.316Z,98061.97
2023-02-08T20:36:38.544Z,98055.88
2023-02-08T20:39:06.985Z,98054.06
2023-02-08T20:41:34.893Z,98049.25
2023-02-08T20:44:01.738Z,98030.53
2023-02-08T20:46:31.478Z,98049.06
2023-02-08T20:49:00.285Z,98020.69
2023-02-08T20:51:27.832Z,98002.03
2023-02-08T20:53:56.236Z,98024.16
2023-02-08T20:56:26.494Z,98036.75
2023-02-08T20:58:55.271Z,98041.78
2023-02-08T21:01:27.758Z,98041.41
2023-02-08T21:03:56.572Z,98045.72
2023-02-08T21:06:29.522Z,98048.91
2023-02-08T21:09:03.479Z,98038.88
2023-02-08T21:11:32.260Z,98010.16
2023-02-08T21:14:00.231Z,98029.59
2023-02-08T21:16:27.316Z,98054.59
2023-02-08T21:18:54.804Z,98052.38
2023-02-08T21:21:21.750Z,98017.88
2023-02-08T21:23:48.480Z,98013.88
2023-02-08T21:26:23.487Z,98042.19
2023-02-08T21:28:55.358Z,98038.81
2023-02-08T21:31:24.138Z,98015.47
2023-02-08T21:33:51.627Z,98028.41
2023-02-08T21:36:22.512Z,98003.06
2023-02-08T21:38:49.478Z,98037.31
2023-02-08T21:41:27.769Z,98027.28
2023-02-08T21:43:57.200Z,98012.94
2023-02-08T21:46:24.907Z,97998.66
2023-02-08T21:49:10.358Z,97986.00
2023-02-08T21:51:55.693Z,98030.84
2023-02-08T21:54:46.410Z,98008.44
2023-02-08T21:57:19.349Z,97994.44
2023-02-08T21:59:47.617Z,98004.69
2023-02-08T22:02:25.690Z,97999.34
2023-02-08T22:04:54.432Z,98021.72
2023-02-08T22:07:21.508Z,97984.47
2023-02-08T22:09:49.432Z,98008.59
2023-02-08T22:12:18.593Z,98020.47
2023-02-08T22:14:45.199Z,97991.81
2023-02-08T22:17:11.815Z,97994.94
2023-02-08T22:19:40.389Z,98014.53
2023-02-08T22:22:08.058Z,98010.00
2023-02-08T22:24:36.039Z,98000.13
2023-02-08T22:27:02.912Z,97973.59
2023-02-08T22:29:29.594Z,97985.84
2023-02-08T22:31:56.517Z,97995.94
2023-02-08T22:34:24.005Z,97966.31
2023-02-08T22:36:50.629Z,97946.75
2023-02-08T22:39:17.220Z,97958.16
2023-02-08T22:41:43.879Z,97987.81
2023-02-08T22:44:10.592Z,97950.69
2023-02-08T22:46:37.500Z,97971.94
2023-02-08T22:49:04.180Z,97988.88
2023-02-08T22:51:30.881Z,97990.34
2023-02-08T22:53:57.564Z,97982.91
2023-02-08T22:56:24.191Z,97939.19
2023-02-08T22:58:50.831Z,97959.69
2023-02-08T23:01:17.685Z,97917.75
2023-02-08T23:03:44.633Z,97980.09
2023-02-08T23:06:15.710Z,97977.25
2023-02-08T23:08:42.546Z,97896.34
2023-02-08T23:11:12.260Z,97982.91
2023-02-08T23:13:38.935Z,97977.25
2023-02-08T23:16:06.075Z,97951.69
2023-02-08T23:18:32.733Z,97945.94
2023-02-08T23:21:06.050Z,97949.13
2023-02-08T23:23:32.756Z,97968.72
2023-02-08T23:25:59.491Z,97978.13
2023-02-08T23:28:26.232Z,97974.59
2023-02-08T23:30:52.909Z,97951.06
2023-02-08T23:33:19.746Z,97916.66
2023-02-08T23:35:46.486Z,97863.88
2023-02-08T23:38:13.187Z,97916.41
2023-02-08T23:40:41.311Z,97952.50
2023-02-08T23:43:08.353Z,97956.22
2023-02-08T23:45:36.256Z,97923.31
2023-02-08T23:48:02.946Z,97916.31
2023-02-08T23:50:29.562Z,97950.28
2023-02-08T23:52:56.589Z,97950.47
2023-02-08T23:55:23.940Z,97881.47
2023-02-08T23:57:50.790Z,97936.69
